Nearby METAR Reports

 

K27K - Georgetown, Kentucky, USA
Distance from station: NE 1mi, 3km
Updated: Sun, 29-Nov-2020 1:55am EST
Clear
Clear
 Wind from calm
Wind: Calm
Temperature: 30°F , -1°C
Dew Point: 28°F , -2°C
Humidity: 93%
Barometer: 30.15 inHg , 1021 hPa
Clouds: Clear
Visibility: 10 miles , 16 km
2020/11/29 06:55 K27K 290655Z AUTO 00000KT 10SM CLR M01/M02 A3015 RMK AO1
KLEX - Lexington, Kentucky, USA
Distance from station: SE 25mi, 38km
Updated: Sun, 29-Nov-2020 1:54am EST
Clear
Clear
 Wind from SSE
Wind: SSE 7 mph , 11 km/h
Temperature: 28°F , -2°C
Wind Chill: 21°F , -6°C
Dew Point: 25°F , -4°C
Humidity: 86%
Barometer: 30.15 inHg , 1021 hPa
Clouds: Clear
Visibility: 8 miles , 13 km
2020/11/29 06:54 KLEX 290654Z 16006KT 8SM CLR M02/M04 A3015 RMK AO2 SLP216 T10221039
 
KFFT - Frankfort, Kentucky, USA
Distance from station: WNW 24mi, 38km
Updated: Sun, 29-Nov-2020 1:53am EST
Clear
Clear
 Wind from calm
Wind: Calm
Temperature: 28°F , -2°C
Dew Point: 25°F , -4°C
Humidity: 86%
Barometer: 30.14 inHg , 1020.7 hPa
Clouds: Clear
Visibility: 10 miles , 16 km
2020/11/29 06:53 KFFT 290653Z AUTO 00000KT 10SM CLR M02/M04 A3014 RMK AO2 SLP212 T10171039
KIOB - Mount Sterling, Kentucky, USA
Distance from station: E 28mi, 46km
Updated: Sun, 29-Nov-2020 1:55am EST
Clear
Clear
 Wind from calm
Wind: Calm
Temperature: 30°F , -1°C
Dew Point: 28°F , -2°C
Humidity: 93%
Barometer: 30.17 inHg , 1021.7 hPa
Clouds: Clear
Visibility: 10 miles , 16 km
2020/11/29 06:55 KIOB 290655Z AUTO 00000KT 10SM CLR M01/M02 A3017 RMK AO2
 
KDVK - Danville, Kentucky, USA
Distance from station: SSW 35mi, 56km
Updated: Sun, 29-Nov-2020 1:55am EST
Clear
Clear
 Wind from calm
Wind: Calm
Temperature: 30°F , -1°C
Dew Point: 28°F , -2°C
Humidity: 93%
Barometer: 30.16 inHg , 1021.3 hPa
Clouds: Clear
Visibility: 10 miles , 16 km
2020/11/29 06:55 KDVK 290655Z AUTO 00000KT 10SM CLR M01/M02 A3016 RMK AO2
K6I2 - Springfield, Kentucky, USA
Distance from station: SW 49mi, 80km
Updated: Sun, 29-Nov-2020 1:50am EST
Clear
Clear
 Wind from calm
Wind: Calm
Temperature: 32°F , 0°C
Dew Point: 30°F , -1°C
Humidity: 93%
Barometer: 30.15 inHg , 1021 hPa
Clouds: Clear
Visibility: 10 miles , 16 km
2020/11/29 06:50 K6I2 290650Z AUTO 00000KT 10SM CLR 00/M01 A3015 RMK AO2
 
KSYM - Morehead, Kentucky, USA
Distance from station: ENE 51mi, 83km
Updated: Sat, 28-Nov-2020 6:55pm EST
NOT Current
Clear
Clear
 Wind from calm
Wind: Calm
Temperature: 41°F , 5°C
Dew Point: 30°F , -1°C
Humidity: 66%
Barometer: 30.20 inHg , 1022.7 hPa
Clouds: Clear
Visibility: 10 miles , 16 km
2020/11/28 23:55 KSYM 282355Z AUTO 00000KT 10SM CLR 05/M01 A3020 RMK AO2
KFGX - Flemingsburg, Kentucky, USA
Distance from station: NE 54mi, 87km
Updated: Sun, 29-Nov-2020 1:55am EST
Clear
Clear
 Wind from S
Wind: S 5 mph , 7 km/h
Temperature: 32°F , 0°C
Wind Chill: 27°F , -3°C
Dew Point: 30°F , -1°C
Humidity: 93%
Barometer: 30.17 inHg , 1021.7 hPa
Clouds: Clear
Visibility: 10 miles , 16 km
2020/11/29 06:55 KFGX 290655Z AUTO 18004KT 10SM CLR 00/M01 A3017 RMK AO2 T00041012
 
KLOU - Louisville/Bowmn, Kentucky, USA
Distance from station: W 64mi, 104km
Updated: Sun, 29-Nov-2020 1:53am EST
Clear
Clear
 Wind from calm
Wind: Calm
Temperature: 36°F , 2°C
Dew Point: 30°F , -1°C
Humidity: 81%
Barometer: 30.15 inHg , 1021 hPa
Clouds: Clear
Visibility: 7 miles , 11 km
2020/11/29 06:53 KLOU 290653Z AUTO 00000KT 7SM CLR 02/M01 A3015 RMK AO2 SLP211 T00221011
KSDF - Louisville, Kentucky, USA
Distance from station: W 68mi, 109km
Updated: Sun, 29-Nov-2020 1:56am EST
Clear
Clear
 Wind from ESE
Wind: ESE 5 mph , 7 km/h
Temperature: 36°F , 2°C
Wind Chill: 32°F , 0°C
Dew Point: 28°F , -2°C
Humidity: 75%
Barometer: 30.14 inHg , 1020.7 hPa
Clouds: Clear
Visibility: 10 miles , 16 km
2020/11/29 06:56 KSDF 290656Z 11004KT 10SM CLR 02/M02 A3014 RMK AO2 SLP208 T00221017
 
KSME - Somerset, Kentucky, USA
Distance from station: S 69mi, 111km
Updated: Sun, 29-Nov-2020 1:55am EST
Mist, Clear
Mist, Clear
 Wind from calm
Wind: Calm
Temperature: 30°F , -1°C
Dew Point: 27°F , -3°C
Humidity: 86%
Barometer: 30.16 inHg , 1021.3 hPa
Summary: Mist
Clouds: Clear
Visibility: 5 miles , 8 km
2020/11/29 06:55 KSME 290655Z AUTO 00000KT 5SM BR CLR M01/M03 A3016 RMK AO2
KCVG - Covington, Kentucky, USA
Distance from station: N 70mi, 113km
Updated: Sun, 29-Nov-2020 1:52am EST
Clear
Clear
 Wind from calm
Wind: Calm
Temperature: 32°F , 0°C
Dew Point: 28°F , -2°C
Humidity: 87%
Barometer: 30.12 inHg , 1020 hPa
Clouds: Clear
Visibility: 9 miles , 14 km
2020/11/29 06:52 KCVG 290652Z 00000KT 9SM CLR 00/M02 A3012 RMK AO2 SLP203 T00001022
 
KLOZ - London, Kentucky, USA
Distance from station: SSE 70mi, 113km
Updated: Sun, 29-Nov-2020 1:53am EST
Mist, Clear
Mist, Clear
 Wind from calm
Wind: Calm
Temperature: 30°F , -1°C
Dew Point: 28°F , -2°C
Humidity: 93%
Barometer: 30.13 inHg , 1020.3 hPa
Summary: Mist
Clouds: Clear
Visibility: 6 miles , 10 km
2020/11/29 06:53 KLOZ 290653Z AUTO 00000KT 6SM BR CLR M01/M02 A3013 RMK AO2 SLP209 T10111022
KJKL - Noctor/Jackson, Kentucky, USA
Distance from station: ESE 72mi, 115km
Updated: Sun, 29-Nov-2020 1:53am EST
Clear
Clear
 Wind from calm
Wind: Calm
Temperature: 37°F , 3°C
Dew Point: 30°F , -1°C
Humidity: 75%
Barometer: 30.15 inHg , 1021 hPa
Clouds: Clear
Visibility: 10 miles , 16 km
2020/11/29 06:53 KJKL 290653Z AUTO 00000KT 10SM CLR 03/M01 A3015 RMK AO2 SLP215 T00331011
 
KIMS - Madison, Indiana, USA
Distance from station: NW 72mi, 116km
Updated: Sun, 29-Nov-2020 1:55am EST
Clear
Clear
 Wind from calm
Wind: Calm
Temperature: 30°F , -1°C
Dew Point: 30°F , -1°C
Humidity: 100%
Barometer: 30.16 inHg , 1021.3 hPa
Clouds: Clear
Visibility: 10 miles , 16 km
2020/11/29 06:55 KIMS 290655Z AUTO 00000KT 10SM CLR M01/M01 A3016 RMK AO1
KLUK - Cincinnat/Lunken, Ohio, USA
Distance from station: N 73mi, 118km
Updated: Sun, 29-Nov-2020 2:05am EST
Mist, Clear
Mist, Clear
 Wind from ENE
Wind: ENE 3 mph , 6 km/h
Temperature: 28°F , -2°C
Dew Point: 27°F , -3°C
Humidity: 93%
Barometer: 30.16 inHg , 1021.3 hPa
Summary: Mist
Clouds: Clear
Visibility: 3/4 mile , 1.2 km
2020/11/29 07:05 KLUK 290705Z AUTO 06003KT 3/4SM R21L/P6000FT BR CLR M02/M03 A3016 RMK AO2 T10221028
 
KI69 - Batavia, Ohio, USA
Distance from station: NNE 74mi, 119km
Updated: Sun, 29-Nov-2020 1:55am EST
Clear
Clear
 Wind from calm
Wind: Calm
Temperature: 32°F , 0°C
Dew Point: 28°F , -2°C
Humidity: 87%
Barometer: 30.14 inHg , 1020.7 hPa
Clouds: Clear
Visibility: 10 miles , 16 km
2020/11/29 06:55 KI69 290655Z AUTO 00000KT 10SM CLR 00/M02 A3014 RMK AO2 T00001016